Time;durP1;ratioP1;P1;durP2;ratioP2;P2;SDS_P1;SDS_P2;PMS_P1;PMS_P2;Temp;Humidity;BMP_temperature;BMP_pressure;BME280_temperature;BME280_humidity;BME280_pressure;Samples;Min_cycle;Max_cycle;Signal;HPM_P1;HPM_P2
2023/07/06 00:01:27;;;;;;;0.80;0.80;;;;;;;22.50;46.23;100551.03;4528884;28;21297;-61
2023/07/06 00:03:38;;;;;;;0.70;0.70;;;;;;;22.52;46.42;100550.69;4528450;28;20025;-61
2023/07/06 00:05:48;;;;;;;0.80;0.77;;;;;;;22.45;46.28;100547.66;4528662;28;20080;-61
2023/07/06 00:08:00;;;;;;;0.77;0.70;;;;;;;22.51;46.22;100557.66;4528424;28;20718;-61
2023/07/06 00:10:10;;;;;;;0.77;0.73;;;;;;;22.50;45.96;100551.03;4527823;28;20575;-61
2023/07/06 00:12:22;;;;;;;0.85;0.70;;;;;;;22.49;46.49;100557.19;4528555;28;20041;-61
2023/07/06 00:14:33;;;;;;;0.70;0.70;;;;;;;22.49;46.32;100554.31;4520815;28;20030;-61
2023/07/06 00:16:47;;;;;;;0.60;0.60;;;;;;;22.50;46.55;100561.75;4518353;28;20025;-61
2023/07/06 00:18:58;;;;;;;0.90;0.70;;;;;;;22.49;46.21;100562.94;4529621;28;20048;-61
2023/07/06 00:21:08;;;;;;;1.05;0.70;;;;;;;22.47;46.74;100560.44;4529733;28;20092;-62
2023/07/06 00:23:20;;;;;;;0.68;0.65;;;;;;;22.47;46.31;100560.44;4529965;28;20022;-61
2023/07/06 00:25:30;;;;;;;0.77;0.70;;;;;;;22.47;46.62;100559.63;4530154;28;20033;-61
2023/07/06 00:27:41;;;;;;;0.63;0.60;;;;;;;22.46;46.15;100555.91;4529865;28;20041;-61
2023/07/06 00:29:56;;;;;;;1.00;0.70;;;;;;;22.46;46.10;100555.91;4518655;28;20112;-61
2023/07/06 00:32:26;;;;;;;0.70;0.70;;;;;;;22.46;46.21;100560.81;4528356;28;20041;-60
2023/07/06 00:34:36;;;;;;;0.60;0.60;;;;;;;22.46;46.23;100561.66;4526437;28;20060;-60
2023/07/06 00:36:50;;;;;;;0.70;0.70;;;;;;;22.46;46.38;100566.56;4528617;28;20044;-60
2023/07/06 00:39:03;;;;;;;0.60;0.60;;;;;;;22.45;46.03;100564.91;4530583;28;20645;-60
2023/07/06 00:41:14;;;;;;;0.93;0.60;;;;;;;22.46;45.82;100572.31;4518572;28;20048;-60
2023/07/06 00:43:46;;;;;;;1.15;0.77;;;;;;;22.42;46.02;100562.81;4528077;28;20116;-61
2023/07/06 00:46:08;;;;;;;0.80;0.65;;;;;;;22.44;45.70;100564.09;4528648;28;21057;-60
2023/07/06 00:48:26;;;;;;;0.80;0.68;;;;;;;22.45;45.65;100559.16;4527240;28;20101;-61
2023/07/06 00:50:37;;;;;;;0.80;0.50;;;;;;;22.43;45.53;100567.34;4529145;28;20047;-60
2023/07/06 00:52:51;;;;;;;0.63;0.63;;;;;;;22.43;44.90;100564.47;4529354;28;20044;-61
2023/07/06 00:55:06;;;;;;;0.70;0.60;;;;;;;22.38;45.21;100556.16;4529493;28;20757;-60
2023/07/06 00:57:19;;;;;;;1.10;0.60;;;;;;;22.37;45.29;100558.22;4510169;28;20092;-61
2023/07/06 00:59:32;;;;;;;0.60;0.52;;;;;;;22.41;45.36;100569.75;4517437;28;20057;-61
2023/07/06 01:01:47;;;;;;;0.50;0.50;;;;;;;22.37;45.76;100569.72;4518346;28;20615;-61
2023/07/06 01:04:01;;;;;;;0.82;0.70;;;;;;;22.42;45.02;100575.13;4527387;28;20294;-60
2023/07/06 01:06:19;;;;;;;0.75;0.70;;;;;;;22.42;45.29;100582.94;4528249;28;20399;-60
2023/07/06 01:08:35;;;;;;;1.00;0.63;;;;;;;22.39;45.48;100572.19;4529447;28;20037;-60
2023/07/06 01:10:46;;;;;;;0.60;0.60;;;;;;;22.40;45.06;100573.84;4520004;28;20187;-60
2023/07/06 01:13:00;;;;;;;0.88;0.60;;;;;;;22.39;45.03;100577.97;4508119;28;20038;-61
2023/07/06 01:15:10;;;;;;;0.50;0.50;;;;;;;22.39;44.49;100575.09;4523954;28;20029;-60
2023/07/06 01:17:30;;;;;;;0.47;0.47;;;;;;;22.37;44.76;100571.75;4526268;28;20025;-61
2023/07/06 01:20:20;;;;;;;0.60;0.50;;;;;;;22.35;44.82;100565.53;4529170;28;20037;-61
2023/07/06 01:23:13;;;;;;;0.65;0.60;;;;;;;22.39;44.48;100575.09;4511075;28;21000;-60
2023/07/06 01:25:45;;;;;;;0.50;0.50;;;;;;;22.38;45.10;100577.13;4514669;28;20044;-61
2023/07/06 01:28:36;;;;;;;0.60;0.60;;;;;;;22.37;44.64;100569.72;4507520;28;20761;-60
2023/07/06 01:30:56;;;;;;;0.40;0.40;;;;;;;22.38;44.81;100577.13;4526736;28;20336;-61
2023/07/06 01:33:11;;;;;;;0.70;0.60;;;;;;;22.33;45.14;100567.94;4527897;28;20065;-60
2023/07/06 01:35:29;;;;;;;0.93;0.60;;;;;;;22.37;45.03;100574.63;4506253;28;20077;-60
2023/07/06 01:37:42;;;;;;;0.95;0.60;;;;;;;22.36;44.88;100575.84;4526927;28;21020;-60
2023/07/06 01:39:53;;;;;;;0.70;0.50;;;;;;;22.35;44.51;100572.13;4528442;28;21333;-60
2023/07/06 01:42:10;;;;;;;0.75;0.60;;;;;;;22.35;44.59;100577.88;4528543;28;20029;-60
2023/07/06 01:44:22;;;;;;;0.68;0.50;;;;;;;22.34;44.97;100575.38;4527901;28;20123;-60
2023/07/06 01:46:32;;;;;;;0.60;0.60;;;;;;;22.32;44.61;100569.16;4528162;28;20180;-61
2023/07/06 01:48:43;;;;;;;0.50;0.50;;;;;;;22.32;44.62;100578.63;4528034;28;20535;-61
2023/07/06 01:51:20;;;;;;;0.60;0.50;;;;;;;22.33;44.75;100573.69;4528334;28;20086;-60
2023/07/06 01:53:52;;;;;;;0.50;0.50;;;;;;;22.32;44.67;100577.78;4527455;28;20111;-61
2023/07/06 01:56:31;;;;;;;0.50;0.50;;;;;;;22.33;44.63;100582.31;4527483;28;20044;-60
2023/07/06 01:58:59;;;;;;;0.50;0.50;;;;;;;22.32;44.66;100577.78;4508128;28;20112;-60
2023/07/06 02:01:17;;;;;;;0.50;0.43;;;;;;;22.30;44.25;100574.47;4510864;28;20076;-61
2023/07/06 02:03:29;;;;;;;0.50;0.50;;;;;;;22.29;44.56;100572.81;4527767;28;20079;-60
2023/07/06 02:05:40;;;;;;;0.63;0.50;;;;;;;22.31;44.22;100576.97;4527316;28;20316;-60
2023/07/06 02:07:51;;;;;;;0.60;0.60;;;;;;;22.32;43.85;100586.44;4527010;28;21499;-61
2023/07/06 02:10:02;;;;;;;0.50;0.50;;;;;;;22.27;44.34;100584.69;4527263;28;20048;-60
2023/07/06 02:12:12;;;;;;;0.55;0.55;;;;;;;22.32;44.11;100586.44;4528232;28;20033;-60
2023/07/06 02:14:23;;;;;;;1.00;0.60;;;;;;;22.23;43.58;100581.72;4513448;28;20072;-60
2023/07/06 02:16:33;;;;;;;0.60;0.60;;;;;;;22.29;43.95;100590.06;4517086;28;20577;-61
2023/07/06 02:18:44;;;;;;;0.52;0.52;;;;;;;22.28;44.02;100582.66;4527003;28;20100;-61
2023/07/06 02:20:54;;;;;;;0.77;0.63;;;;;;;22.29;44.49;100584.31;4526051;28;20055;-60
2023/07/06 02:23:07;;;;;;;0.43;0.40;;;;;;;22.28;44.10;100594.16;4527445;28;20273;-60
2023/07/06 02:25:18;;;;;;;0.50;0.50;;;;;;;22.27;44.42;100587.56;4528280;28;20731;-60
2023/07/06 02:27:29;;;;;;;0.57;0.57;;;;;;;22.25;44.29;100583.41;4527621;28;20039;-60
2023/07/06 02:29:41;;;;;;;0.50;0.50;;;;;;;22.29;44.74;100596.66;4527113;28;20033;-60
2023/07/06 02:31:53;;;;;;;0.70;0.50;;;;;;;22.27;44.05;100592.47;4527618;28;21025;-61
2023/07/06 02:34:04;;;;;;;0.50;0.50;;;;;;;22.14;44.47;100575.41;4527816;28;20035;-61
2023/07/06 02:36:16;;;;;;;0.80;0.70;;;;;;;22.25;44.55;100589.97;4526597;28;20125;-61
2023/07/06 02:38:29;;;;;;;0.75;0.60;;;;;;;22.23;44.49;100580.09;4526467;28;20036;-61
2023/07/06 02:40:40;;;;;;;0.50;0.50;;;;;;;22.14;44.79;100569.66;4526270;28;20670;-60
2023/07/06 02:42:50;;;;;;;0.50;0.50;;;;;;;22.26;44.41;100585.06;4501815;28;20033;-61
2023/07/06 02:45:04;;;;;;;0.63;0.60;;;;;;;22.25;44.40;100592.84;4517814;28;20348;-60
2023/07/06 02:47:14;;;;;;;0.40;0.40;;;;;;;22.26;44.44;100596.56;4526861;28;20041;-60
2023/07/06 02:49:25;;;;;;;0.70;0.50;;;;;;;22.26;44.09;100602.31;4526229;28;20619;-60
2023/07/06 02:51:35;;;;;;;1.38;0.70;;;;;;;22.26;44.25;100591.66;4527652;28;20094;-60
2023/07/06 02:53:46;;;;;;;1.58;0.57;;;;;;;22.23;44.42;100594.47;4505655;28;20038;-60
2023/07/06 02:55:58;;;;;;;0.50;0.50;;;;;;;22.23;44.25;100591.59;4509407;28;20028;-60
2023/07/06 02:58:09;;;;;;;1.05;0.60;;;;;;;22.22;43.90;100590.75;4526493;28;20140;-60
2023/07/06 03:00:19;;;;;;;0.63;0.50;;;;;;;22.18;43.90;100599.28;4526039;28;20040;-60
2023/07/06 03:02:30;;;;;;;1.17;0.60;;;;;;;22.20;44.35;100598.91;4524032;28;20091;-60
2023/07/06 03:04:41;;;;;;;0.60;0.60;;;;;;;22.20;44.03;100599.75;4527316;28;20033;-61
2023/07/06 03:06:55;;;;;;;0.68;0.50;;;;;;;22.11;44.12;100584.78;4525887;28;20042;-60
2023/07/06 03:09:09;;;;;;;0.75;0.43;;;;;;;22.16;44.34;100598.84;4528708;28;20037;-60
2023/07/06 03:11:19;;;;;;;0.50;0.45;;;;;;;22.18;43.71;100599.28;4528814;28;20120;-60
2023/07/06 03:13:31;;;;;;;0.63;0.63;;;;;;;22.20;44.13;100604.66;4528157;28;20043;-60
2023/07/06 03:15:42;;;;;;;0.50;0.50;;;;;;;22.21;44.00;100614.97;4510772;28;20029;-61
2023/07/06 03:17:52;;;;;;;0.40;0.40;;;;;;;22.19;43.63;100603.84;4527789;28;20041;-61
2023/07/06 03:20:13;;;;;;;0.70;0.50;;;;;;;22.18;43.54;100607.91;4530480;28;20033;-62
2023/07/06 03:22:23;;;;;;;0.93;0.60;;;;;;;22.19;43.62;100615.34;4528673;28;20025;-60
2023/07/06 03:24:34;;;;;;;1.23;0.50;;;;;;;22.12;43.22;100603.69;4527193;28;20630;-63
2023/07/06 03:26:44;;;;;;;0.60;0.60;;;;;;;22.17;43.43;100616.91;4527565;28;20040;-63
2023/07/06 03:28:55;;;;;;;0.60;0.60;;;;;;;22.15;43.63;100614.41;4531895;28;20057;-63
2023/07/06 03:31:07;;;;;;;1.40;0.70;;;;;;;22.12;43.36;100603.69;4525741;28;20868;-63
2023/07/06 03:33:19;;;;;;;0.80;0.70;;;;;;;22.14;43.95;100618.50;4529761;28;20030;-63
2023/07/06 03:35:29;;;;;;;0.65;0.60;;;;;;;22.15;43.70;100613.59;4529258;28;20033;-63
2023/07/06 03:37:42;;;;;;;0.98;0.70;;;;;;;22.11;44.23;100613.53;4519060;28;20067;-63
2023/07/06 03:39:52;;;;;;;0.82;0.73;;;;;;;22.06;43.74;100610.94;4513589;28;20029;-63
2023/07/06 03:42:03;;;;;;;0.85;0.73;;;;;;;22.09;43.82;100618.81;4531843;28;20064;-63
2023/07/06 03:44:14;;;;;;;0.80;0.60;;;;;;;22.09;43.92;100615.09;4530385;28;20787;-63
2023/07/06 03:46:34;;;;;;;0.52;0.50;;;;;;;22.09;43.80;100621.69;4517595;28;20084;-63
2023/07/06 03:48:46;;;;;;;0.60;0.60;;;;;;;22.05;44.18;100612.16;4533522;28;20087;-63
2023/07/06 03:51:04;;;;;;;0.82;0.50;;;;;;;22.10;44.35;100628.28;4531037;28;20029;-63
2023/07/06 03:53:14;;;;;;;0.60;0.57;;;;;;;22.06;43.67;100622.44;4531883;28;21051;-63
2023/07/06 03:55:26;;;;;;;0.75;0.50;;;;;;;22.08;44.14;100628.66;4531206;28;20179;-63
2023/07/06 03:57:37;;;;;;;0.52;0.52;;;;;;;22.05;44.16;100625.69;4530596;28;20033;-63
2023/07/06 03:59:47;;;;;;;0.60;0.60;;;;;;;22.03;43.95;100626.06;4530506;28;20064;-63
2023/07/06 04:01:57;;;;;;;1.02;0.70;;;;;;;22.03;44.10;100626.06;4530421;28;20045;-63
2023/07/06 04:04:08;;;;;;;0.80;0.60;;;;;;;22.05;44.53;100632.28;4531362;28;20927;-63
2023/07/06 04:06:19;;;;;;;1.20;0.60;;;;;;;22.04;44.41;100633.47;4533208;28;20079;-63
2023/07/06 04:08:30;;;;;;;0.50;0.50;;;;;;;22.03;44.44;100639.59;4531336;28;20535;-63
2023/07/06 04:10:41;;;;;;;0.45;0.45;;;;;;;21.95;44.16;100626.28;4531159;28;20136;-63
2023/07/06 04:12:53;;;;;;;0.63;0.60;;;;;;;22.00;44.51;100638.31;4528939;28;20525;-63
2023/07/06 04:15:05;;;;;;;1.13;0.60;;;;;;;22.00;44.60;100638.31;4528224;28;20144;-63
2023/07/06 04:17:16;;;;;;;0.55;0.50;;;;;;;21.99;44.78;100639.50;4527207;28;20044;-63
2023/07/06 04:19:28;;;;;;;0.55;0.50;;;;;;;21.97;44.47;100630.47;4511765;28;20104;-63
2023/07/06 04:21:39;;;;;;;1.45;0.50;;;;;;;21.98;44.47;100637.84;4529249;28;20607;-63
2023/07/06 04:23:49;;;;;;;0.60;0.50;;;;;;;21.98;44.90;100634.97;4528998;28;20033;-63
2023/07/06 04:26:00;;;;;;;0.60;0.60;;;;;;;21.95;45.24;100632.88;4528599;28;20103;-63
2023/07/06 04:28:12;;;;;;;0.52;0.52;;;;;;;21.98;44.80;100637.00;4528744;28;20032;-63
2023/07/06 04:30:23;;;;;;;0.60;0.50;;;;;;;21.96;45.05;100636.59;4528968;28;20042;-63
2023/07/06 04:32:33;;;;;;;1.00;0.60;;;;;;;21.96;44.83;100628.78;4528007;28;20037;-63
2023/07/06 04:34:43;;;;;;;0.60;0.60;;;;;;;21.95;45.24;100629.16;4516373;28;20038;-63
2023/07/06 04:36:54;;;;;;;0.70;0.63;;;;;;;21.89;45.17;100622.88;4528876;28;20288;-63
2023/07/06 04:39:07;;;;;;;0.60;0.60;;;;;;;21.96;45.32;100637.38;4528495;28;20057;-63
2023/07/06 04:41:18;;;;;;;0.77;0.60;;;;;;;21.93;45.02;100629.53;4528636;28;20120;-63
2023/07/06 04:43:28;;;;;;;0.70;0.60;;;;;;;21.94;45.35;100636.97;4529389;28;20120;-63
2023/07/06 04:45:39;;;;;;;1.13;0.90;;;;;;;21.89;45.60;100627.78;4528194;28;20103;-63
2023/07/06 04:47:51;;;;;;;0.60;0.57;;;;;;;21.93;45.58;100641.03;4527852;28;20427;-63
2023/07/06 04:50:02;;;;;;;0.80;0.60;;;;;;;21.90;45.71;100647.53;4528265;28;20037;-63
2023/07/06 04:52:12;;;;;;;0.63;0.63;;;;;;;21.92;45.88;100650.00;4528667;28;21546;-63
2023/07/06 04:54:24;;;;;;;0.80;0.60;;;;;;;21.89;45.70;100640.13;4529486;28;20037;-63
2023/07/06 04:56:37;;;;;;;0.70;0.50;;;;;;;21.88;45.73;100644.19;4514433;28;20132;-63
2023/07/06 04:58:47;;;;;;;1.38;0.70;;;;;;;21.87;45.54;100645.41;4527943;28;20032;-63
2023/07/06 05:01:04;;;;;;;0.55;0.55;;;;;;;21.89;45.75;100645.88;4529347;28;20491;-63
2023/07/06 05:03:15;;;;;;;0.70;0.70;;;;;;;21.86;45.85;100640.88;4528011;28;20041;-63
2023/07/06 05:05:28;;;;;;;0.60;0.60;;;;;;;21.90;45.09;100653.28;4528562;28;20048;-63
2023/07/06 05:07:40;;;;;;;0.60;0.60;;;;;;;21.87;45.70;100648.28;4528152;28;20045;-63
2023/07/06 05:09:50;;;;;;;0.93;0.70;;;;;;;21.77;46.07;100631.59;4529281;28;20033;-63
2023/07/06 05:12:01;;;;;;;1.15;0.65;;;;;;;21.90;46.01;100655.28;4528127;28;20041;-64
2023/07/06 05:14:11;;;;;;;1.20;0.70;;;;;;;21.87;46.02;100654.03;4516371;28;20194;-63
2023/07/06 05:16:21;;;;;;;0.90;0.60;;;;;;;21.87;46.02;100654.03;4528590;28;20029;-63
2023/07/06 05:18:32;;;;;;;0.90;0.60;;;;;;;21.84;46.22;100648.19;4528932;28;20041;-63
2023/07/06 05:20:42;;;;;;;1.73;0.80;;;;;;;21.88;46.22;100660.63;4528741;28;20056;-64
2023/07/06 05:22:53;;;;;;;1.73;0.75;;;;;;;21.84;46.42;100649.03;4528476;28;20101;-63
2023/07/06 05:25:04;;;;;;;1.02;0.77;;;;;;;21.87;46.26;100662.66;4528723;28;20076;-63
2023/07/06 05:27:15;;;;;;;0.70;0.70;;;;;;;21.89;46.17;100660.25;4528810;28;20123;-63
2023/07/06 05:29:25;;;;;;;0.90;0.75;;;;;;;21.89;46.50;100654.50;4528873;28;20040;-63
2023/07/06 05:31:36;;;;;;;0.80;0.70;;;;;;;21.88;46.82;100654.88;4528399;28;20037;-63
2023/07/06 05:33:46;;;;;;;0.70;0.60;;;;;;;21.86;46.37;100651.53;4529370;28;20778;-63
2023/07/06 05:35:56;;;;;;;0.80;0.68;;;;;;;21.87;46.26;100659.78;4529893;28;20037;-63
2023/07/06 05:38:10;;;;;;;0.95;0.85;;;;;;;21.89;46.31;100660.25;4527970;28;20036;-63
2023/07/06 05:40:20;;;;;;;0.77;0.70;;;;;;;21.85;46.97;100650.69;4529370;28;20076;-65
2023/07/06 05:42:31;;;;;;;1.00;0.60;;;;;;;21.83;46.56;100658.88;4527562;28;20447;-64
2023/07/06 05:44:41;;;;;;;1.75;0.85;;;;;;;21.87;46.66;100668.38;4527250;28;20034;-63
2023/07/06 05:46:51;;;;;;;0.73;0.60;;;;;;;21.85;46.77;100669.97;4526695;28;21062;-64
2023/07/06 05:49:02;;;;;;;0.60;0.60;;;;;;;21.87;47.12;100677.00;4528245;28;20377;-64
2023/07/06 05:51:12;;;;;;;1.08;0.80;;;;;;;21.87;47.05;100674.13;4529254;28;20037;-64
2023/07/06 05:53:23;;;;;;;0.85;0.70;;;;;;;21.85;47.02;100673.66;4527822;28;20068;-63
2023/07/06 05:55:33;;;;;;;0.88;0.70;;;;;;;21.86;47.15;100672.47;4528416;28;20037;-63
2023/07/06 05:57:45;;;;;;;1.85;0.70;;;;;;;21.86;47.14;100681.09;4512974;28;20108;-63
2023/07/06 05:59:55;;;;;;;0.60;0.60;;;;;;;21.84;46.88;100677.75;4526795;28;20130;-63
2023/07/06 06:02:08;;;;;;;0.70;0.70;;;;;;;21.71;46.62;100656.06;4501498;28;20577;-63
2023/07/06 06:04:19;;;;;;;0.70;0.60;;;;;;;21.80;46.68;100678.88;4527295;28;20044;-63
2023/07/06 06:06:46;;;;;;;0.65;0.65;;;;;;;21.83;46.96;100687.59;4512831;28;20077;-63
2023/07/06 06:08:56;;;;;;;0.90;0.70;;;;;;;21.82;46.91;100697.41;4528093;28;20134;-63
2023/07/06 06:11:07;;;;;;;1.20;0.60;;;;;;;21.81;46.83;100692.88;4526838;28;20828;-63
2023/07/06 06:13:18;;;;;;;0.57;0.55;;;;;;;21.80;46.11;100684.63;4529002;28;20537;-63
2023/07/06 06:15:28;;;;;;;0.50;0.50;;;;;;;21.79;46.33;100694.44;4529007;28;20041;-63
2023/07/06 06:17:40;;;;;;;0.73;0.60;;;;;;;21.76;47.07;100693.16;4526925;28;20038;-63
2023/07/06 06:19:50;;;;;;;0.60;0.60;;;;;;;21.80;46.66;100705.56;4527230;28;20033;-62
2023/07/06 06:22:04;;;;;;;0.70;0.60;;;;;;;21.74;46.54;100701.28;4527405;28;20488;-63
2023/07/06 06:24:15;;;;;;;0.50;0.50;;;;;;;21.76;46.72;100698.91;4526236;28;20152;-63
2023/07/06 06:26:25;;;;;;;0.55;0.55;;;;;;;21.83;46.86;100718.38;4527319;28;20029;-62
2023/07/06 06:28:36;;;;;;;0.73;0.60;;;;;;;21.83;47.15;100719.22;4517506;28;21017;-62
2023/07/06 06:30:46;;;;;;;1.05;0.60;;;;;;;21.82;46.77;100720.41;4526642;28;20930;-62
2023/07/06 06:32:57;;;;;;;0.90;0.60;;;;;;;21.76;46.54;100715.31;4528219;28;20049;-63
2023/07/06 06:35:23;;;;;;;0.93;0.60;;;;;;;21.83;46.71;100726.97;4527626;28;20040;-62
2023/07/06 06:37:33;;;;;;;0.85;0.70;;;;;;;21.77;46.64;100717.81;4527241;28;20048;-63
2023/07/06 06:39:44;;;;;;;0.73;0.60;;;;;;;21.81;46.17;100727.34;4527287;28;20539;-63
2023/07/06 06:41:55;;;;;;;0.90;0.73;;;;;;;21.81;46.63;100735.13;4527994;28;20076;-63
2023/07/06 06:44:07;;;;;;;0.45;0.43;;;;;;;21.82;47.15;100739.66;4512006;28;20037;-63
2023/07/06 06:46:18;;;;;;;0.93;0.57;;;;;;;21.80;47.38;100739.22;4511682;28;20041;-63
2023/07/06 06:48:28;;;;;;;0.98;0.60;;;;;;;21.75;47.64;100731.72;4516215;28;20041;-63
2023/07/06 06:50:39;;;;;;;0.70;0.60;;;;;;;21.80;47.57;100742.09;4518124;28;20044;-63
2023/07/06 06:52:50;;;;;;;0.73;0.50;;;;;;;21.78;47.17;100738.75;4527398;28;20033;-64
2023/07/06 06:55:01;;;;;;;0.95;0.60;;;;;;;21.79;46.60;100738.38;4526427;28;20041;-65
2023/07/06 06:57:14;;;;;;;0.77;0.40;;;;;;;21.74;46.38;100730.00;4527366;28;20029;-63
2023/07/06 06:59:24;;;;;;;1.17;0.60;;;;;;;21.78;46.54;100736.72;4527165;28;20120;-64
2023/07/06 07:01:35;;;;;;;0.63;0.52;;;;;;;21.78;46.70;100742.47;4527116;28;20025;-64
2023/07/06 07:03:45;;;;;;;0.80;0.43;;;;;;;21.76;46.76;100739.13;4526019;28;20477;-65
2023/07/06 07:06:00;;;;;;;1.20;0.60;;;;;;;21.77;47.23;100742.84;4526575;28;20107;-65
2023/07/06 07:08:11;;;;;;;1.35;0.60;;;;;;;21.77;47.43;100740.78;4526891;28;20044;-67
2023/07/06 07:10:22;;;;;;;0.90;0.52;;;;;;;21.76;47.18;100735.41;4527564;28;20048;-66
2023/07/06 07:12:32;;;;;;;0.63;0.50;;;;;;;21.77;46.41;100745.72;4529004;28;20343;-67
2023/07/06 07:14:43;;;;;;;0.50;0.50;;;;;;;21.76;46.53;100739.13;4527820;28;20481;-67
2023/07/06 07:16:55;;;;;;;0.70;0.57;;;;;;;21.79;46.86;100749.88;4525925;28;20052;-66
2023/07/06 07:19:05;;;;;;;0.52;0.50;;;;;;;21.80;46.74;100745.78;4526864;28;20140;-65
2023/07/06 07:21:19;;;;;;;0.93;0.52;;;;;;;21.79;45.99;100743.28;4527444;28;20051;-66
2023/07/06 07:23:35;;;;;;;0.63;0.60;;;;;;;21.80;46.36;100750.72;4525827;28;20480;-64
2023/07/06 07:25:45;;;;;;;0.60;0.50;;;;;;;21.73;46.27;100742.72;4526365;28;20087;-65
2023/07/06 07:27:56;;;;;;;0.93;0.50;;;;;;;21.78;46.66;100753.13;4527209;28;20127;-65
2023/07/06 07:30:08;;;;;;;0.73;0.47;;;;;;;21.79;46.48;100752.75;4511721;28;20038;-65
2023/07/06 07:32:20;;;;;;;1.30;0.50;;;;;;;21.80;46.24;100760.16;4525916;28;20628;-65
2023/07/06 07:34:32;;;;;;;0.50;0.45;;;;;;;21.80;46.69;100760.16;4527645;28;21046;-65
2023/07/06 07:36:44;;;;;;;1.15;0.80;;;;;;;21.80;46.35;100759.34;4525436;28;20570;-65
2023/07/06 07:38:56;;;;;;;0.85;0.60;;;;;;;21.76;46.37;100753.50;4526449;28;20053;-65
2023/07/06 07:41:08;;;;;;;0.95;0.60;;;;;;;21.77;46.61;100758.03;4526303;28;20067;-65
2023/07/06 07:43:18;;;;;;;0.73;0.50;;;;;;;21.77;46.68;100763.78;4527586;28;20028;-65
2023/07/06 07:45:28;;;;;;;1.55;0.68;;;;;;;21.78;46.82;100747.38;4526097;28;20037;-65
2023/07/06 07:47:39;;;;;;;0.60;0.60;;;;;;;21.77;46.35;100749.41;4525226;28;20060;-65
2023/07/06 07:49:50;;;;;;;1.13;0.50;;;;;;;21.77;46.42;100752.28;4525824;28;20120;-66
2023/07/06 07:52:01;;;;;;;0.85;0.60;;;;;;;21.77;46.43;100746.53;4526309;28;20072;-63
2023/07/06 07:54:12;;;;;;;1.08;0.70;;;;;;;21.80;46.84;100756.47;4527263;28;20826;-63
2023/07/06 07:56:25;;;;;;;0.80;0.60;;;;;;;21.77;45.84;100758.03;4525471;28;20044;-63
2023/07/06 07:58:37;;;;;;;1.05;0.60;;;;;;;21.80;46.74;100760.16;4526477;28;20899;-62
2023/07/06 08:00:49;;;;;;;0.85;0.70;;;;;;;21.80;46.98;100757.28;4525016;28;20737;-63
2023/07/06 08:02:59;;;;;;;0.80;0.60;;;;;;;21.81;46.97;100758.13;4525319;28;20607;-63
2023/07/06 08:05:09;;;;;;;0.65;0.55;;;;;;;21.78;47.43;100759.72;4525084;28;20075;-62
2023/07/06 08:07:20;;;;;;;1.20;0.63;;;;;;;21.79;47.07;100761.38;4515570;28;20029;-62
2023/07/06 08:09:30;;;;;;;0.70;0.57;;;;;;;21.76;46.77;100744.88;4526259;28;20041;-62
2023/07/06 08:11:46;;;;;;;1.10;0.50;;;;;;;21.81;46.88;100758.13;4525954;28;20044;-62
2023/07/06 08:13:57;;;;;;;0.93;0.60;;;;;;;21.79;46.50;100764.25;4528166;28;20029;-63
2023/07/06 08:16:08;;;;;;;0.80;0.70;;;;;;;21.82;45.45;100766.38;4528543;28;20029;-62
2023/07/06 08:18:19;;;;;;;0.68;0.52;;;;;;;21.81;45.66;100769.63;4528758;28;20167;-62
2023/07/06 08:20:30;;;;;;;1.02;0.50;;;;;;;21.78;45.38;100767.50;4528948;28;20033;-63
2023/07/06 08:22:40;;;;;;;1.02;0.50;;;;;;;21.81;46.28;100772.50;4529822;28;20041;-62
2023/07/06 08:24:52;;;;;;;1.02;0.60;;;;;;;21.80;45.94;100768.78;4531289;28;20025;-62
2023/07/06 08:27:03;;;;;;;0.50;0.50;;;;;;;21.81;46.26;100770.47;4529908;28;20051;-63
2023/07/06 08:29:13;;;;;;;0.85;0.60;;;;;;;21.81;45.93;100770.47;4528769;28;20030;-62
2023/07/06 08:31:24;;;;;;;1.10;0.65;;;;;;;21.83;46.29;100772.97;4520983;28;20470;-62
2023/07/06 08:33:35;;;;;;;0.75;0.50;;;;;;;21.78;46.58;100758.88;4529717;28;20033;-62
2023/07/06 08:35:47;;;;;;;0.55;0.50;;;;;;;21.73;45.91;100754.22;4529676;28;20137;-62
2023/07/06 08:38:07;;;;;;;0.50;0.50;;;;;;;21.83;46.29;100778.72;4528987;28;20032;-63
2023/07/06 08:40:19;;;;;;;1.05;0.60;;;;;;;21.79;46.10;100754.78;4529134;28;20742;-63
2023/07/06 08:42:31;;;;;;;0.60;0.60;;;;;;;21.83;46.83;100762.31;4528877;28;20066;-62
2023/07/06 08:44:51;;;;;;;0.52;0.52;;;;;;;21.81;46.91;100758.97;4529065;28;20068;-63
2023/07/06 08:47:02;;;;;;;1.67;0.73;;;;;;;21.83;46.86;100762.31;4512832;28;20034;-62
2023/07/06 08:49:32;;;;;;;0.50;0.50;;;;;;;21.84;45.83;100771.75;4527569;28;20038;-62
2023/07/06 08:51:44;;;;;;;0.63;0.60;;;;;;;21.84;46.88;100775.47;4529719;28;20029;-64
2023/07/06 08:54:01;;;;;;;0.82;0.57;;;;;;;21.74;47.24;100763.66;4529146;28;20503;-62
2023/07/06 08:56:14;;;;;;;;;;;;;;;21.84;46.91;100777.50;4530321;28;20116;-62
2023/07/06 08:58:27;;;;;;;0.77;0.50;;;;;;;21.82;47.53;100783.59;4529256;28;20482;-62
2023/07/06 09:00:38;;;;;;;1.00;0.50;;;;;;;21.81;47.10;100776.22;4519520;28;20037;-62
2023/07/06 09:02:53;;;;;;;1.60;0.60;;;;;;;21.80;47.02;100767.97;4528779;28;20033;-62
2023/07/06 09:05:12;;;;;;;0.65;0.55;;;;;;;21.82;46.69;100772.13;4528427;28;20813;-62
2023/07/06 09:07:34;;;;;;;0.50;0.50;;;;;;;21.85;46.53;100784.94;4527354;28;20136;-62
2023/07/06 09:09:48;;;;;;;0.70;0.60;;;;;;;21.85;46.33;100777.13;4529191;28;20076;-63
2023/07/06 09:11:59;;;;;;;0.82;0.70;;;;;;;21.80;46.68;100773.69;4532173;28;20037;-63
2023/07/06 09:14:16;;;;;;;1.35;0.77;;;;;;;21.79;46.90;100772.00;4532140;28;20091;-63
2023/07/06 09:16:26;;;;;;;0.73;0.63;;;;;;;21.83;46.55;100770.94;4530438;28;20045;-63
2023/07/06 09:18:37;;;;;;;1.33;0.60;;;;;;;21.81;46.56;100767.59;4528835;28;20041;-63
2023/07/06 09:20:49;;;;;;;0.70;0.65;;;;;;;21.79;46.39;100775.72;4527536;28;20037;-63
2023/07/06 09:23:01;;;;;;;1.27;0.65;;;;;;;21.85;47.08;100774.25;4532180;28;20819;-63
2023/07/06 09:25:37;;;;;;;1.27;0.60;;;;;;;21.85;46.71;100777.13;4531219;28;20036;-63
2023/07/06 09:27:49;;;;;;;1.00;0.70;;;;;;;21.84;46.80;100786.09;4532011;28;20154;-63
2023/07/06 09:30:06;;;;;;;0.65;0.65;;;;;;;21.86;47.54;100784.56;4530833;28;20618;-63
2023/07/06 09:32:22;;;;;;;0.60;0.50;;;;;;;21.83;47.25;100776.69;4523422;28;20355;-63
2023/07/06 09:34:33;;;;;;;0.47;0.47;;;;;;;21.85;48.13;100780.00;4530486;28;20029;-63
2023/07/06 09:36:47;;;;;;;0.70;0.60;;;;;;;21.81;47.15;100773.34;4532359;28;20033;-63
2023/07/06 09:39:09;;;;;;;0.47;0.47;;;;;;;21.88;45.94;100787.06;4529795;28;20426;-63
2023/07/06 09:41:22;;;;;;;0.68;0.60;;;;;;;21.86;46.29;100790.28;4516706;28;20034;-63
2023/07/06 09:43:38;;;;;;;0.68;0.60;;;;;;;21.88;46.75;100798.53;4529548;28;20044;-63
2023/07/06 09:45:50;;;;;;;0.77;0.60;;;;;;;21.89;46.67;100788.72;4530860;28;20021;-64
2023/07/06 09:48:05;;;;;;;1.38;0.52;;;;;;;21.85;47.33;100779.19;4531341;28;20037;-63
2023/07/06 09:50:23;;;;;;;0.98;0.63;;;;;;;21.90;47.34;100785.47;4531564;28;20036;-63
2023/07/06 09:52:39;;;;;;;1.20;0.60;;;;;;;21.89;47.35;100789.56;4525770;28;20029;-63
2023/07/06 09:54:56;;;;;;;0.60;0.60;;;;;;;21.83;46.31;100779.56;4531730;28;20025;-63
2023/07/06 09:57:12;;;;;;;0.82;0.63;;;;;;;21.85;46.17;100780.00;4529825;28;20037;-63
2023/07/06 09:59:23;;;;;;;0.90;0.60;;;;;;;21.88;45.85;100785.00;4530084;28;20580;-63
2023/07/06 10:02:05;;;;;;;0.80;0.60;;;;;;;21.92;46.04;100791.69;4527821;28;20029;-63
2023/07/06 10:04:27;;;;;;;0.60;0.57;;;;;;;21.93;46.24;100792.50;4529662;28;21480;-63
2023/07/06 10:06:56;;;;;;;0.80;0.60;;;;;;;21.92;45.58;100788.81;4529183;28;20039;-63
2023/07/06 10:09:29;;;;;;;0.70;0.70;;;;;;;21.92;45.85;100785.09;4529102;28;20584;-63
2023/07/06 10:11:44;;;;;;;1.02;0.60;;;;;;;21.95;45.80;100781.47;4526331;28;20048;-63
2023/07/06 10:14:01;;;;;;;0.88;0.57;;;;;;;21.96;45.60;100783.97;4528286;28;20138;-63
2023/07/06 10:16:24;;;;;;;;;;;;;;;21.98;45.55;100778.69;4529049;28;20040;-63
2023/07/06 10:18:44;;;;;;;0.50;0.50;;;;;;;21.97;46.51;100782.78;4527764;28;19928;-63
2023/07/06 10:21:27;;;;;;;0.65;0.60;;;;;;;21.99;44.77;100782.41;4506328;28;20243;-63
2023/07/06 10:24:09;;;;;;;1.10;0.65;;;;;;;21.98;45.19;100774.97;4526728;28;20060;-63